Dublin, IN (47335)

11:29 AM EDT on July 28, 2016 (GMT -0400)
Fairholme Farms | | Change Station

Elev 1050 ft 39.79 °N, 85.35 °W | Updated 6 minutes ago

Clear
Clear
79.0 °F
Feels Like 82 °F
N
0.0
Wind Variable Wind from WSW
Gusts 3.0 mph

Today
High -- | Low -- °F
--% Chance of Precip.
Yesterday
High -- | Low -- °F
Precip. -- in
Pressure 29.93 in
Visibility 10.0 miles
Clouds Clear
Heat Index 82 °F
Dew Point 73 °F
Humidity 82%
Rainfall 0.00 in
Snow Depth Not available.
6:36 AM 8:57 PM
Waning Crescent, 31% visible
METAR KAID 281450Z 00000KT 10SM CLR 25/20 A2993
Pressure 29.93 in
Visibility 10.0 miles
Clouds Clear
Heat Index 82 °F
Dew Point 73 °F
Humidity 82%
Rainfall 0.00 in
Snow Depth Not available.
6:36 AM 8:57 PM
Waning Crescent, 31% visible
METAR KAID 281450Z 00000KT 10SM CLR 25/20 A2993

10-Day Weather Forecast

Almanac

Astronomy

Jul. 28, 2016 Rise Set
Actual Time
Civil Twilight
Nautical Twilight
Astronomical Twilight
Moon
Length of Visible Light
Length of Day
Tomorrow will be .
, % of the Moon is Illuminated

Today's Extremes

State Highs State Lows

Community

WunderPhotos

Upload Photos

1,928,124 photos uploaded!

WunderBlog® & News

Nearby

Air Quality

  Air Quality AQ Index Pollutant
Not available.

Snow Depth

Station Depth Elevation

Earthquake Activity

City Distance Mag. Time & Date
Minimum magnitude displayed is 2.5.

Coastal Water Temperatures

Place Temperature

Stations

Nearby Weather Stations

Station Location Temp. Windchill Dew Point Humidity Wind Precip. Elev Updated Type
                   

Watches & Warnings

There are currently no watches in effect.